Time;durP1;ratioP1;P1;durP2;ratioP2;P2;SDS_P1;SDS_P2;PMS_P1;PMS_P2;Temp;Humidity;BMP_temperature;BMP_pressure;BME280_temperature;BME280_humidity;BME280_pressure;Samples;Min_cycle;Max_cycle;Signal;HPM_P1;HPM_P2
2022/11/12 00:01:36;;;;;;;13.77;8.15;;;;;;;2.88;100.00;98873.72;5029549;28;20052;-57
2022/11/12 00:04:21;;;;;;;10.82;6.78;;;;;;;2.75;100.00;98868.00;5028815;28;20123;-55
2022/11/12 00:07:06;;;;;;;11.77;7.40;;;;;;;2.72;100.00;98872.69;5037915;28;20048;-57
2022/11/12 00:09:51;;;;;;;13.02;8.05;;;;;;;2.99;100.00;98870.69;5048761;28;20132;-55
2022/11/12 00:12:36;;;;;;;13.93;7.68;;;;;;;2.96;100.00;98872.88;5034511;28;20269;-54
2022/11/12 00:15:21;;;;;;;12.45;7.28;;;;;;;2.99;100.00;98873.38;5029297;28;20057;-57
2022/11/12 00:18:06;;;;;;;13.00;7.28;;;;;;;2.82;100.00;98866.34;5043808;28;20044;-56
2022/11/12 00:20:51;;;;;;;10.80;6.25;;;;;;;2.87;100.00;98874.69;5027964;28;20136;-58
2022/11/12 00:23:36;;;;;;;13.23;6.85;;;;;;;2.97;100.00;98875.41;5030887;28;20068;-55
2022/11/12 00:26:21;;;;;;;10.75;6.47;;;;;;;2.99;100.00;98867.22;5031055;28;20056;-57
2022/11/12 00:29:06;;;;;;;10.50;6.82;;;;;;;2.92;100.00;98860.84;5041563;28;20055;-58
2022/11/12 00:31:51;;;;;;;9.10;6.00;;;;;;;2.78;100.00;98856.97;5047674;28;20084;-57
2022/11/12 00:34:36;;;;;;;11.10;6.35;;;;;;;2.89;100.00;98861.16;5041974;28;20057;-58
2022/11/12 00:37:22;;;;;;;10.55;6.50;;;;;;;2.88;100.00;98860.34;5028373;28;20131;-55
2022/11/12 00:40:07;;;;;;;10.05;5.97;;;;;;;2.84;100.00;98856.31;5028506;28;20052;-58
2022/11/12 00:42:53;;;;;;;8.10;5.15;;;;;;;2.79;100.00;98853.28;5043070;28;20713;-55
2022/11/12 00:45:37;;;;;;;9.00;5.90;;;;;;;2.90;100.00;98863.69;5031555;28;20069;-56
2022/11/12 00:48:22;;;;;;;10.40;5.80;;;;;;;2.91;100.00;98870.69;5035141;28;20093;-58
2022/11/12 00:51:08;;;;;;;8.77;5.80;;;;;;;3.01;100.00;98867.03;5033276;28;20045;-57
2022/11/12 00:53:53;;;;;;;7.78;5.10;;;;;;;3.15;100.00;98865.53;5027607;28;20839;-57
2022/11/12 00:56:38;;;;;;;6.53;5.13;;;;;;;3.22;100.00;98863.88;5032118;28;20044;-58
2022/11/12 00:59:23;;;;;;;8.02;5.15;;;;;;;3.25;100.00;98866.22;5047875;28;20147;-55
2022/11/12 01:02:08;;;;;;;6.82;4.75;;;;;;;3.35;100.00;98864.19;5037470;28;20044;-55
2022/11/12 01:04:53;;;;;;;7.60;5.60;;;;;;;3.29;100.00;98862.19;5027919;28;20107;-56
2022/11/12 01:07:38;;;;;;;12.05;5.68;;;;;;;3.36;100.00;98865.03;5040026;28;20055;-57
2022/11/12 01:10:23;;;;;;;7.93;5.72;;;;;;;3.24;100.00;98870.72;5047297;28;20411;-57
2022/11/12 01:13:08;;;;;;;6.82;4.80;;;;;;;2.90;100.00;98865.50;5032655;28;20060;-57
2022/11/12 01:15:53;;;;;;;7.90;5.10;;;;;;;2.92;100.00;98866.19;5028121;28;20412;-57
2022/11/12 01:18:38;;;;;;;9.73;5.80;;;;;;;2.83;100.00;98865.31;5031283;28;20420;-56
2022/11/12 01:21:26;;;;;;;7.47;4.75;;;;;;;2.84;100.00;98862.50;5046666;28;20187;-54
2022/11/12 01:24:12;;;;;;;7.90;5.13;;;;;;;2.76;100.00;98856.31;5027931;28;20047;-57
2022/11/12 01:26:57;;;;;;;7.13;4.70;;;;;;;2.70;100.00;98860.47;5033682;28;20726;-57
2022/11/12 01:29:42;;;;;;;6.88;4.88;;;;;;;2.76;100.00;98858.97;5034079;28;20658;-56
2022/11/12 01:32:27;;;;;;;7.30;4.80;;;;;;;2.62;100.00;98845.25;5036361;28;20048;-57
2022/11/12 01:35:12;;;;;;;9.85;5.70;;;;;;;2.73;100.00;98838.75;5047506;28;20090;-58
2022/11/12 01:37:57;;;;;;;6.78;4.97;;;;;;;2.68;100.00;98841.06;5033851;28;20127;-58
2022/11/12 01:40:42;;;;;;;8.88;4.80;;;;;;;2.68;100.00;98835.72;5026880;28;20523;-58
2022/11/12 01:43:26;;;;;;;7.53;5.05;;;;;;;2.77;100.00;98836.56;5044840;28;20133;-57
2022/11/12 01:46:27;;;;;;;6.00;4.40;;;;;;;2.97;100.00;98829.06;5047671;28;20056;-57
2022/11/12 01:49:38;;;;;;;7.55;5.10;;;;;;;2.97;100.00;98829.06;5027131;28;20095;-57
2022/11/12 01:52:29;;;;;;;7.20;4.78;;;;;;;3.04;100.00;98832.75;5034552;28;20115;-57
2022/11/12 01:55:25;;;;;;;7.43;4.88;;;;;;;3.19;100.00;98827.56;5047175;28;20574;-58
2022/11/12 01:58:13;;;;;;;6.72;4.60;;;;;;;3.04;100.00;98826.56;5031860;28;20052;-57
2022/11/12 02:01:01;;;;;;;7.78;5.40;;;;;;;2.92;100.00;98824.22;5026554;28;20060;-58
2022/11/12 02:03:46;;;;;;;7.85;5.05;;;;;;;2.88;100.00;98822.88;5027258;28;20154;-58
2022/11/12 02:06:33;;;;;;;7.75;5.78;;;;;;;2.86;100.00;98820.38;5027527;28;20064;-57
2022/11/12 02:09:18;;;;;;;9.55;4.95;;;;;;;2.84;100.00;98813.53;5047002;28;20076;-58
2022/11/12 02:12:04;;;;;;;8.35;4.60;;;;;;;2.81;100.00;98808.50;5040977;28;20048;-57
2022/11/12 02:14:49;;;;;;;8.73;5.40;;;;;;;2.84;100.00;98805.50;5027117;28;20112;-57
2022/11/12 02:17:34;;;;;;;6.72;4.40;;;;;;;2.78;100.00;98808.81;5035560;28;20530;-53
2022/11/12 02:20:19;;;;;;;6.78;4.75;;;;;;;2.69;100.00;98808.81;5047299;28;20052;-57
2022/11/12 02:23:06;;;;;;;8.05;4.65;;;;;;;2.55;100.00;98793.41;5032937;28;20052;-56
2022/11/12 02:25:51;;;;;;;7.45;4.88;;;;;;;2.56;100.00;98805.78;5028782;28;20043;-55
2022/11/12 02:28:36;;;;;;;7.32;4.88;;;;;;;2.34;100.00;98806.25;5031943;28;20051;-56
2022/11/12 02:31:21;;;;;;;6.55;4.60;;;;;;;2.38;100.00;98804.06;5038576;28;20086;-55
2022/11/12 02:34:06;;;;;;;7.18;4.53;;;;;;;2.40;100.00;98802.06;5026776;28;20110;-55
2022/11/12 02:36:51;;;;;;;7.25;4.82;;;;;;;2.51;100.00;98797.44;5037029;28;20056;-55
2022/11/12 02:39:36;;;;;;;7.10;4.78;;;;;;;2.44;100.00;98790.03;5046402;28;20111;-55
2022/11/12 02:42:21;;;;;;;7.97;4.38;;;;;;;2.41;100.00;98792.22;5025178;28;20555;-56
2022/11/12 02:45:06;;;;;;;;;;;;;;;2.55;100.00;98802.25;5026935;28;20057;-54
2022/11/12 02:47:52;;;;;;;;;;;;;;;2.63;100.00;98796.09;5026455;28;19927;-56
2022/11/12 02:50:36;;;;;;;;;;;;;;;2.49;100.00;98799.41;5026840;28;19999;-56
2022/11/12 02:53:21;;;;;;;;;;;;;;;2.24;100.00;98791.34;5042594;28;20070;-58
2022/11/12 02:56:06;;;;;;;;;;;;;;;2.01;100.00;98797.28;5045053;28;19928;-57
2022/11/12 02:58:51;;;;;;;;;;;;;;;1.90;100.00;98799.25;5046297;28;19928;-57
2022/11/12 03:01:36;;;;;;;7.32;4.90;;;;;;;1.75;100.00;98799.03;5033726;28;20034;-58
2022/11/12 03:04:21;;;;;;;7.75;4.85;;;;;;;1.79;100.00;98804.88;5026273;28;20056;-56
2022/11/12 03:07:06;;;;;;;8.57;5.18;;;;;;;1.72;100.00;98801.16;5026535;28;20057;-57
2022/11/12 03:09:51;;;;;;;9.50;5.85;;;;;;;1.71;100.00;98819.03;5028699;28;20044;-54
2022/11/12 03:12:36;;;;;;;13.40;6.32;;;;;;;1.65;100.00;98820.50;5034134;28;20154;-54
2022/11/12 03:15:21;;;;;;;10.15;6.45;;;;;;;1.71;100.00;98821.69;5026197;28;20535;-57
2022/11/12 03:18:06;;;;;;;11.27;6.93;;;;;;;1.72;100.00;98826.03;5038738;28;20417;-56
2022/11/12 03:20:52;;;;;;;9.85;7.03;;;;;;;1.71;100.00;98824.38;5039466;28;20551;-56
2022/11/12 03:23:37;;;;;;;10.20;6.20;;;;;;;1.83;100.00;98822.25;5045754;28;20138;-55
2022/11/12 03:26:22;;;;;;;11.02;6.15;;;;;;;1.98;100.00;98827.81;5044682;28;20059;-53
2022/11/12 03:29:06;;;;;;;9.02;5.78;;;;;;;2.07;100.00;98828.72;5036897;28;20176;-56
2022/11/12 03:31:51;;;;;;;10.43;6.63;;;;;;;2.07;100.00;98828.72;5025554;28;20063;-56
2022/11/12 03:34:36;;;;;;;10.77;6.03;;;;;;;2.20;100.00;98834.44;5027617;28;20125;-56
2022/11/12 03:37:21;;;;;;;9.75;5.65;;;;;;;2.30;100.00;98836.97;5025932;28;20535;-55
2022/11/12 03:40:07;;;;;;;9.63;5.47;;;;;;;2.21;100.00;98821.88;5032742;28;20039;-55
2022/11/12 03:42:52;;;;;;;8.57;4.80;;;;;;;2.19;100.00;98818.56;5045464;28;20056;-55
2022/11/12 03:45:37;;;;;;;7.43;4.78;;;;;;;1.96;100.00;98811.13;5033972;28;20080;-56
2022/11/12 03:48:23;;;;;;;8.18;4.80;;;;;;;2.05;100.00;98814.66;5027531;28;20060;-55
2022/11/12 03:51:11;;;;;;;8.45;5.25;;;;;;;2.01;100.00;98819.50;5024774;28;20259;-55
2022/11/12 03:53:56;;;;;;;10.18;5.88;;;;;;;1.77;100.00;98813.03;5026568;28;20056;-57
2022/11/12 03:56:40;;;;;;;7.70;4.93;;;;;;;1.80;100.00;98814.53;5027452;28;20177;-56
2022/11/12 03:59:25;;;;;;;8.02;5.35;;;;;;;1.75;100.00;98812.38;5028633;28;20045;-55
2022/11/12 04:02:13;;;;;;;7.78;5.50;;;;;;;1.80;100.00;98806.53;5028975;28;20064;-55
2022/11/12 04:11:14;;;;;;;8.32;5.07;;;;;;;2.03;100.00;98811.31;5028534;28;20171;-57
2022/11/12 04:13:59;;;;;;;8.10;4.97;;;;;;;2.11;100.00;98819.38;5029186;28;20557;-58
2022/11/12 04:22:52;;;;;;;7.32;4.35;;;;;;;2.29;100.00;98811.22;5048218;28;20634;-58
2022/11/12 04:30:14;;;;;;;7.25;4.32;;;;;;;2.43;100.00;98801.75;5034118;28;20055;-58
2022/11/12 04:31:48;;;;;;;7.38;4.05;;;;;;;2.05;100.00;98798.63;5028098;28;20059;-57
2022/11/12 04:34:33;;;;;;;8.02;4.93;;;;;;;1.91;100.00;98805.41;5031030;28;20527;-58
2022/11/12 04:37:19;;;;;;;8.52;4.25;;;;;;;1.93;100.00;98806.09;5048215;28;20051;-57
2022/11/12 04:44:58;;;;;;;7.30;4.18;;;;;;;2.07;100.00;98815.34;5039796;28;20096;-57
2022/11/12 04:46:19;;;;;;;7.72;4.70;;;;;;;2.27;100.00;98804.38;5045324;28;20056;-58
2022/11/12 04:49:04;;;;;;;7.43;4.30;;;;;;;2.47;100.00;98803.09;5049408;28;20467;-58
2022/11/12 04:52:04;;;;;;;6.13;3.85;;;;;;;2.57;100.00;98800.28;5027827;28;20067;-57
2022/11/12 04:54:50;;;;;;;7.32;4.28;;;;;;;2.55;100.00;98801.44;5037656;28;20522;-57
2022/11/12 04:57:36;;;;;;;7.15;4.05;;;;;;;2.66;100.00;98798.47;5047602;28;20059;-53
2022/11/12 05:00:22;;;;;;;7.93;4.43;;;;;;;2.62;100.00;98805.13;5028636;28;20135;-53
2022/11/12 05:03:07;;;;;;;6.80;4.10;;;;;;;2.62;100.00;98804.28;5027627;28;20466;-53
2022/11/12 05:05:52;;;;;;;6.75;3.95;;;;;;;2.80;100.00;98794.28;5040144;28;20094;-54
2022/11/12 05:08:37;;;;;;;6.80;4.00;;;;;;;2.86;100.00;98792.78;5048263;28;20055;-54
2022/11/12 05:11:22;;;;;;;6.70;4.07;;;;;;;2.87;100.00;98791.75;5030005;28;20528;-56
2022/11/12 05:14:07;;;;;;;5.93;3.83;;;;;;;2.97;100.00;98792.44;5028336;28;20056;-53
2022/11/12 05:16:52;;;;;;;6.20;3.95;;;;;;;2.82;100.00;98799.47;5028098;28;20519;-55
2022/11/12 05:19:37;;;;;;;6.75;4.05;;;;;;;2.72;100.00;98803.13;5036478;28;20519;-56
2022/11/12 05:22:22;;;;;;;7.60;4.43;;;;;;;2.50;100.00;98798.44;5026486;28;20083;-56
2022/11/12 05:25:27;;;;;;;6.72;4.28;;;;;;;2.36;100.00;98803.38;5037081;28;20424;-54
2022/11/12 05:28:12;;;;;;;6.45;4.10;;;;;;;2.17;100.00;98807.19;5046052;28;20059;-56
2022/11/12 05:30:57;;;;;;;7.55;4.50;;;;;;;2.07;100.00;98813.50;5027036;28;20150;-55
2022/11/12 05:33:42;;;;;;;8.00;5.30;;;;;;;2.03;100.00;98814.00;5027319;28;20056;-57
2022/11/12 05:36:27;;;;;;;8.43;5.03;;;;;;;2.00;100.00;98806.28;5044956;28;20440;-55
2022/11/12 05:39:12;;;;;;;8.32;5.00;;;;;;;2.08;100.00;98820.53;5046714;28;20060;-57
2022/11/12 05:41:57;;;;;;;10.52;5.93;;;;;;;2.08;100.00;98811.66;5026767;28;20151;-55
2022/11/12 05:44:57;;;;;;;9.95;6.10;;;;;;;2.18;100.00;98819.56;5031454;28;20179;-55
2022/11/12 05:47:41;;;;;;;8.98;6.43;;;;;;;2.10;100.00;98819.53;5047130;28;20060;-54
2022/11/12 05:50:26;;;;;;;9.60;6.30;;;;;;;2.16;100.00;98826.88;5038403;28;20135;-57
2022/11/12 05:53:23;;;;;;;12.00;6.88;;;;;;;2.10;100.00;98822.19;5026502;28;20053;-57
2022/11/12 05:56:10;;;;;;;10.18;6.78;;;;;;;2.18;100.00;98828.41;5044287;28;20194;-57
2022/11/12 05:58:55;;;;;;;9.05;6.22;;;;;;;2.19;100.00;98831.91;5031706;28;20535;-56
2022/11/12 06:01:43;;;;;;;12.27;6.80;;;;;;;2.22;100.00;98826.25;5026810;28;20056;-54
2022/11/12 06:04:28;;;;;;;10.48;6.07;;;;;;;2.36;100.00;98824.78;5026672;28;20527;-55
2022/11/12 06:07:13;;;;;;;9.25;6.22;;;;;;;2.34;100.00;98832.97;5026990;28;20127;-56
2022/11/12 06:09:58;;;;;;;8.13;6.10;;;;;;;2.55;100.00;98826.31;5030835;28;20454;-54
2022/11/12 06:12:42;;;;;;;8.93;5.30;;;;;;;2.47;100.00;98826.34;5046188;28;20424;-56
2022/11/12 06:15:28;;;;;;;8.30;5.03;;;;;;;2.19;100.00;98838.13;5038386;28;20400;-56
2022/11/12 06:18:13;;;;;;;8.93;5.10;;;;;;;2.02;100.00;98839.88;5026381;28;20057;-54
2022/11/12 06:21:23;;;;;;;7.70;4.75;;;;;;;1.82;100.00;98847.28;5037497;28;20060;-52
2022/11/12 06:24:09;;;;;;;7.72;4.70;;;;;;;1.64;100.00;98852.69;5032782;28;20060;-54
2022/11/12 06:26:54;;;;;;;8.27;4.95;;;;;;;1.54;100.00;98850.13;5037371;28;20128;-55
2022/11/12 06:29:39;;;;;;;8.02;4.65;;;;;;;1.29;100.00;98857.97;5026892;28;20098;-56
2022/11/12 06:32:24;;;;;;;8.70;4.95;;;;;;;1.33;100.00;98862.00;5037736;28;20055;-54
2022/11/12 06:35:09;;;;;;;8.68;5.25;;;;;;;1.34;100.00;98865.50;5032249;28;20419;-53
2022/11/12 06:37:54;;;;;;;7.65;4.85;;;;;;;1.37;100.00;98865.19;5046471;28;20060;-53
2022/11/12 06:40:39;;;;;;;9.02;5.47;;;;;;;1.48;100.00;98864.09;5030322;28;20056;-56
2022/11/12 06:43:26;;;;;;;7.85;5.20;;;;;;;1.53;100.00;98859.97;5042757;28;20052;-56
2022/11/12 06:46:16;;;;;;;8.60;5.53;;;;;;;1.50;100.00;98854.09;5035263;28;20541;-56
2022/11/12 06:49:01;;;;;;;8.18;5.22;;;;;;;1.45;100.00;98848.41;5043715;28;20063;-57
2022/11/12 06:51:50;;;;;;;8.48;5.55;;;;;;;1.36;100.00;98852.84;5035087;28;20060;-57
2022/11/12 06:54:35;;;;;;;9.35;5.63;;;;;;;1.41;100.00;98843.34;5042779;28;20059;-57
2022/11/12 06:57:20;;;;;;;10.60;6.72;;;;;;;1.48;100.00;98851.59;5030940;28;20056;-57
2022/11/12 07:00:05;;;;;;;10.20;5.55;;;;;;;1.59;100.00;98847.84;5030091;28;20056;-56
2022/11/12 07:02:51;;;;;;;10.25;5.80;;;;;;;1.58;100.00;98848.81;5027830;28;20361;-57
2022/11/12 07:05:39;;;;;;;9.80;5.30;;;;;;;1.63;100.00;98843.84;5023748;28;20052;-53
2022/11/12 07:08:24;;;;;;;7.95;5.60;;;;;;;1.63;100.00;98843.84;5028307;28;20068;-57
2022/11/12 07:11:10;;;;;;;10.02;5.55;;;;;;;1.68;100.00;98841.53;5044547;28;20056;-56
2022/11/12 07:13:55;;;;;;;9.40;5.38;;;;;;;1.78;100.00;98830.75;5038764;28;20056;-56
2022/11/12 07:16:40;;;;;;;10.75;5.90;;;;;;;1.76;100.00;98832.72;5025865;28;20063;-57
2022/11/12 07:19:25;;;;;;;11.90;6.07;;;;;;;1.85;100.00;98833.63;5036082;28;20047;-54
2022/11/12 07:22:11;;;;;;;9.52;5.68;;;;;;;1.90;100.00;98823.28;5044777;28;20071;-54
2022/11/12 07:24:56;;;;;;;8.82;6.07;;;;;;;2.13;100.00;98844.09;5032174;28;20278;-54
2022/11/12 07:27:40;;;;;;;9.77;5.97;;;;;;;2.17;100.00;98840.09;5030583;28;20044;-56
2022/11/12 07:30:25;;;;;;;9.25;6.40;;;;;;;2.11;100.00;98835.41;5029356;28;20805;-57
2022/11/12 07:33:10;;;;;;;9.85;6.65;;;;;;;2.23;100.00;98830.59;5029860;28;20052;-56
2022/11/12 07:36:00;;;;;;;10.88;5.85;;;;;;;2.34;100.00;98837.47;5036218;28;20594;-54
2022/11/12 07:38:46;;;;;;;10.30;6.40;;;;;;;2.50;100.00;98834.00;5049504;28;20427;-56
2022/11/12 07:41:31;;;;;;;11.30;6.28;;;;;;;2.64;100.00;98829.00;5035973;28;20160;-54
2022/11/12 07:44:16;;;;;;;10.00;6.75;;;;;;;2.85;100.00;98825.88;5029907;28;20055;-57
2022/11/12 07:47:01;;;;;;;10.45;5.93;;;;;;;3.02;100.00;98834.75;5045097;28;20190;-54
2022/11/12 07:49:46;;;;;;;10.70;6.65;;;;;;;3.16;100.00;98835.91;5050239;28;20147;-55
2022/11/12 07:52:32;;;;;;;11.80;6.78;;;;;;;3.31;100.00;98819.19;5028916;28;20068;-56
2022/11/12 07:55:16;;;;;;;10.25;6.47;;;;;;;3.42;100.00;98816.16;5030077;28;20056;-55
2022/11/12 07:58:01;;;;;;;10.57;6.25;;;;;;;3.58;100.00;98815.28;5034635;28;20056;-56
2022/11/12 08:00:46;;;;;;;10.43;6.45;;;;;;;3.72;100.00;98807.56;5032860;28;20052;-52
2022/11/12 08:03:31;;;;;;;10.90;6.28;;;;;;;3.98;100.00;98807.28;5049155;28;20239;-55
2022/11/12 08:06:16;;;;;;;8.32;5.38;;;;;;;4.08;100.00;98812.44;5044077;28;20048;-54
2022/11/12 08:09:03;;;;;;;9.50;5.57;;;;;;;4.18;100.00;98820.28;5043304;28;20110;-58
2022/11/12 08:11:48;;;;;;;7.30;4.75;;;;;;;4.29;100.00;98816.38;5048082;28;20048;-55
2022/11/12 08:14:33;;;;;;;7.90;5.22;;;;;;;4.42;100.00;98813.13;5047531;28;20063;-57
2022/11/12 08:17:18;;;;;;;6.65;4.28;;;;;;;4.52;100.00;98821.78;5040056;28;20428;-53
2022/11/12 08:20:03;;;;;;;6.82;4.35;;;;;;;4.70;100.00;98818.00;5044193;28;20211;-54
2022/11/12 08:22:48;;;;;;;8.23;4.90;;;;;;;4.87;100.00;98817.88;5029501;28;20175;-57
2022/11/12 08:25:35;;;;;;;6.03;4.10;;;;;;;5.00;100.00;98820.78;5026087;28;20559;-57
2022/11/12 08:28:19;;;;;;;6.50;4.22;;;;;;;5.16;100.00;98821.69;5029254;28;20061;-56
2022/11/12 08:31:13;;;;;;;8.10;4.72;;;;;;;5.33;100.00;98815.16;5047937;28;20087;-57
2022/11/12 08:34:10;;;;;;;6.25;3.83;;;;;;;5.53;100.00;98814.59;5041919;28;20123;-57
2022/11/12 08:36:55;;;;;;;6.20;3.65;;;;;;;5.68;100.00;98811.94;5033137;28;20474;-57
2022/11/12 08:39:41;;;;;;;6.18;3.60;;;;;;;5.81;100.00;98803.22;5047048;28;20052;-57
2022/11/12 08:42:26;;;;;;;7.22;3.80;;;;;;;5.95;100.00;98803.41;5046779;28;20431;-56
2022/11/12 08:45:12;;;;;;;6.63;3.50;;;;;;;6.07;100.00;98814.56;5048801;28;20051;-57
2022/11/12 08:48:15;;;;;;;5.40;3.47;;;;;;;6.20;100.00;98814.72;5035293;28;20096;-57
2022/11/12 08:51:02;;;;;;;6.70;3.25;;;;;;;6.29;100.00;98812.75;5027979;28;20052;-56
2022/11/12 08:53:47;;;;;;;4.60;2.97;;;;;;;6.35;100.00;98812.00;5046053;28;20107;-54
2022/11/12 08:56:32;;;;;;;4.72;3.20;;;;;;;6.48;100.00;98811.34;5047410;28;20123;-55
2022/11/12 08:59:18;;;;;;;7.05;3.10;;;;;;;6.57;100.00;98801.31;5034276;28;20440;-56
2022/11/12 09:02:02;;;;;;;4.85;3.00;;;;;;;6.76;100.00;98796.31;5042793;28;20040;-54
2022/11/12 09:04:47;;;;;;;6.07;3.47;;;;;;;6.84;100.00;98795.34;5028188;28;20064;-56
2022/11/12 09:07:32;;;;;;;5.15;3.08;;;;;;;6.92;100.00;98797.09;5036536;28;20060;-53
2022/11/12 09:10:34;;;;;;;5.15;3.05;;;;;;;7.05;100.00;98794.50;5047303;28;20048;-55
2022/11/12 09:13:19;;;;;;;6.63;3.00;;;;;;;7.26;100.00;98792.81;5033165;28;20072;-55
2022/11/12 09:16:06;;;;;;;4.30;2.70;;;;;;;7.48;100.00;98790.88;5027379;28;20135;-57
2022/11/12 09:18:51;;;;;;;6.13;3.45;;;;;;;7.55;100.00;98780.16;5042789;28;20632;-56
2022/11/12 09:21:36;;;;;;;5.18;3.20;;;;;;;7.61;100.00;98789.31;5046206;28;20048;-54
2022/11/12 09:24:21;;;;;;;5.15;3.47;;;;;;;7.75;100.00;98783.00;5027559;28;20127;-57
2022/11/12 09:27:06;;;;;;;4.20;2.78;;;;;;;7.95;98.99;98782.25;5032020;28;20526;-54
2022/11/12 09:29:51;;;;;;;5.32;3.38;;;;;;;8.09;99.15;98779.59;5032251;28;20052;-57
2022/11/12 09:32:36;;;;;;;5.32;2.92;;;;;;;8.29;99.26;98777.81;5027449;28;20060;-57
2022/11/12 09:35:21;;;;;;;5.35;3.25;;;;;;;8.41;100.00;98780.75;5026791;28;20103;-56
2022/11/12 09:38:06;;;;;;;5.47;2.83;;;;;;;8.56;98.36;98782.50;5039548;28;20063;-58
2022/11/12 09:40:51;;;;;;;5.03;3.30;;;;;;;8.66;97.44;98785.63;5046893;28;20131;-58
2022/11/12 09:43:47;;;;;;;5.38;3.03;;;;;;;8.65;97.69;98778.56;5030816;28;20060;-57
2022/11/12 09:46:54;;;;;;;5.35;2.97;;;;;;;8.74;97.47;98784.63;5027304;28;20076;-58
2022/11/12 09:50:09;;;;;;;5.90;2.97;;;;;;;8.80;96.86;98775.69;5039479;28;20254;-58
2022/11/12 09:53:03;;;;;;;4.82;2.78;;;;;;;8.95;96.85;98780.91;5036135;28;20052;-56
2022/11/12 09:55:49;;;;;;;5.18;2.70;;;;;;;9.18;94.96;98776.94;5027008;28;20056;-57
2022/11/12 09:58:35;;;;;;;4.22;2.78;;;;;;;9.23;94.62;98774.47;5039427;28;20450;-56
2022/11/12 10:01:37;;;;;;;3.97;2.53;;;;;;;9.24;94.88;98781.53;5052231;28;20494;-56
2022/11/12 10:04:50;;;;;;;4.18;2.40;;;;;;;9.23;94.04;98777.19;5033832;28;20436;-57
2022/11/12 10:07:47;;;;;;;4.43;2.38;;;;;;;9.36;93.30;98779.03;5039554;28;20597;-56
2022/11/12 10:10:45;;;;;;;2.85;1.88;;;;;;;9.48;92.51;98779.22;5033529;28;20134;-57
2022/11/12 10:13:44;;;;;;;4.93;3.05;;;;;;;9.65;91.70;98786.91;5035452;28;20064;-56
2022/11/12 10:17:24;;;;;;;4.55;2.28;;;;;;;9.72;91.36;98776.91;5040355;28;20493;-57
2022/11/12 10:20:27;;;;;;;3.30;1.73;;;;;;;9.88;89.58;98780.19;5002821;28;20573;-57
2022/11/12 10:23:18;;;;;;;4.55;2.38;;;;;;;10.07;88.93;98770.34;5037436;28;20051;-57
2022/11/12 10:26:11;;;;;;;4.20;2.13;;;;;;;10.08;87.46;98771.16;5038542;28;20388;-55
2022/11/12 10:29:12;;;;;;;3.42;2.03;;;;;;;10.04;87.37;98773.47;5048862;28;20083;-55
2022/11/12 10:32:00;;;;;;;4.27;2.00;;;;;;;10.12;87.33;98772.41;5043201;28;20094;-55
2022/11/12 10:34:45;;;;;;;3.95;1.88;;;;;;;10.17;86.81;98767.16;5027186;28;21103;-56
2022/11/12 10:37:45;;;;;;;3.10;1.70;;;;;;;10.22;85.73;98763.84;5025576;28;20060;-57
2022/11/12 10:40:33;;;;;;;3.47;1.90;;;;;;;10.20;86.55;98766.75;5027554;28;20184;-55
2022/11/12 10:43:19;;;;;;;3.45;2.00;;;;;;;10.23;84.45;98763.63;5038274;28;20577;-54
2022/11/12 10:46:35;;;;;;;3.85;1.98;;;;;;;10.20;85.57;98757.78;5043951;28;20187;-55
2022/11/12 10:49:23;;;;;;;4.20;2.25;;;;;;;10.36;83.94;98767.31;5034621;28;20082;-57
2022/11/12 10:52:22;;;;;;;3.60;1.85;;;;;;;10.37;83.03;98761.69;5030192;28;20051;-57
2022/11/12 10:55:23;;;;;;;4.03;2.03;;;;;;;10.37;82.27;98752.72;5041613;28;20720;-56
2022/11/12 10:58:08;;;;;;;3.13;1.73;;;;;;;10.43;81.38;98754.53;5033901;28;20087;-58
2022/11/12 11:01:11;;;;;;;4.20;1.80;;;;;;;10.53;81.61;98752.25;5031785;28;20518;-58
2022/11/12 11:03:57;;;;;;;4.13;2.33;;;;;;;10.52;81.41;98752.47;5027418;28;20060;-58
2022/11/12 11:06:42;;;;;;;6.88;4.63;;;;;;;10.34;90.03;98767.53;5033620;28;20681;-58
2022/11/12 11:09:27;;;;;;;8.60;5.45;;;;;;;10.39;91.05;98758.72;5028843;28;20087;-57
2022/11/12 11:12:26;;;;;;;8.13;5.38;;;;;;;10.28;90.16;98766.50;5043226;28;20106;-57
2022/11/12 11:15:14;;;;;;;7.18;5.57;;;;;;;10.53;89.28;98754.94;5049262;28;20346;-58
2022/11/12 11:17:59;;;;;;;7.82;4.82;;;;;;;10.22;91.33;98753.00;5030886;28;20048;-56
2022/11/12 11:20:52;;;;;;;8.40;5.43;;;;;;;10.05;92.55;98748.06;5045374;28;20910;-56
2022/11/12 11:23:54;;;;;;;7.57;5.43;;;;;;;9.99;92.71;98749.75;5041353;28;20068;-57
2022/11/12 11:26:58;;;;;;;7.50;5.07;;;;;;;9.96;93.36;98749.38;5046831;28;20057;-57
2022/11/12 11:30:02;;;;;;;7.57;5.28;;;;;;;9.91;93.05;98755.41;5044907;28;20110;-57
2022/11/12 11:33:24;;;;;;;7.13;5.45;;;;;;;10.08;91.92;98749.53;5045084;28;20056;-57
2022/11/12 11:36:20;;;;;;;7.25;5.78;;;;;;;10.13;91.90;98741.59;5046105;28;20122;-55
2022/11/12 11:39:32;;;;;;;10.00;6.32;;;;;;;9.96;92.80;98749.38;5046712;28;20059;-55
2022/11/12 11:42:46;;;;;;;8.57;6.10;;;;;;;10.13;91.54;98747.00;5038013;28;20056;-56
2022/11/12 11:45:43;;;;;;;8.20;5.43;;;;;;;10.01;92.63;98749.53;5040649;28;20055;-55
2022/11/12 11:48:53;;;;;;;8.77;6.00;;;;;;;9.88;93.87;98750.44;5037568;28;20056;-56
2022/11/12 11:51:54;;;;;;;9.13;6.00;;;;;;;9.93;93.42;98738.97;5052596;28;20182;-56
2022/11/12 11:54:52;;;;;;;8.50;6.03;;;;;;;10.16;92.15;98743.88;5042238;28;20122;-56
2022/11/12 11:57:47;;;;;;;8.13;6.15;;;;;;;10.19;91.61;98738.03;5048248;28;20286;-52
2022/11/12 12:01:05;;;;;;;9.27;6.80;;;;;;;10.06;93.10;98740.78;5030083;28;20092;-54
2022/11/12 12:04:17;;;;;;;9.25;6.25;;;;;;;10.27;91.66;98742.34;5039383;28;20316;-55
2022/11/12 12:07:11;;;;;;;8.52;6.30;;;;;;;10.19;91.52;98738.03;5046668;28;20408;-55
2022/11/12 12:10:05;;;;;;;9.18;6.78;;;;;;;10.19;91.54;98739.88;5034259;28;20517;-57
2022/11/12 12:13:07;;;;;;;7.80;5.95;;;;;;;10.21;91.19;98733.22;5040245;28;20068;-55
2022/11/12 12:16:07;;;;;;;9.52;6.25;;;;;;;10.22;91.55;98723.22;5045494;28;20423;-56
2022/11/12 12:19:01;;;;;;;10.20;6.72;;;;;;;10.21;91.71;98727.81;5039761;28;20080;-54
2022/11/12 12:21:49;;;;;;;10.93;7.03;;;;;;;10.23;91.52;98725.72;5045211;28;20468;-57
2022/11/12 12:25:14;;;;;;;10.95;7.38;;;;;;;10.04;92.63;98718.53;5045818;28;20064;-56
2022/11/12 12:28:16;;;;;;;12.55;6.90;;;;;;;10.00;93.53;98718.94;5030986;28;20180;-57
2022/11/12 12:31:05;;;;;;;;;;;;;;;10.07;93.00;98718.09;5038435;28;20052;-57
2022/11/12 12:34:01;;;;;;;9.02;6.32;;;;;;;10.22;90.83;98707.00;5043905;28;20006;-56
2022/11/12 12:36:52;;;;;;;9.23;7.10;;;;;;;10.19;91.31;98707.41;5053341;28;20134;-54
2022/11/12 12:39:57;;;;;;;9.23;6.82;;;;;;;10.21;91.38;98711.56;5044226;28;20059;-56
2022/11/12 12:42:49;;;;;;;11.75;8.10;;;;;;;10.10;91.96;98709.56;5036930;28;20447;-57
2022/11/12 12:45:43;;;;;;;8.15;6.18;;;;;;;10.17;91.31;98710.34;5044810;28;20094;-56
2022/11/12 12:48:33;;;;;;;8.55;6.53;;;;;;;10.25;90.04;98701.97;5054142;28;20182;-57
2022/11/12 12:51:18;;;;;;;12.93;7.20;;;;;;;9.87;92.12;98705.47;5036662;28;20060;-57
2022/11/12 12:54:03;;;;;;;9.15;6.78;;;;;;;9.95;91.88;98702.53;5040657;28;20102;-57
2022/11/12 12:56:48;;;;;;;11.52;6.90;;;;;;;10.14;91.25;98691.84;5045143;28;20055;-56
2022/11/12 12:59:33;;;;;;;9.73;7.43;;;;;;;10.19;90.72;98694.72;5033948;28;20103;-57
2022/11/12 13:02:22;;;;;;;9.65;7.22;;;;;;;9.96;92.53;98696.09;5037923;28;20440;-56
2022/11/12 13:05:23;;;;;;;10.60;7.20;;;;;;;10.21;90.79;98692.63;5044902;28;20391;-57
2022/11/12 13:08:12;;;;;;;12.48;7.13;;;;;;;10.11;91.96;98686.84;5040542;28;20056;-56
2022/11/12 13:10:58;;;;;;;7.85;6.50;;;;;;;10.00;92.82;98682.94;5038459;28;20141;-58
2022/11/12 13:13:43;;;;;;;9.25;6.38;;;;;;;10.20;90.99;98673.88;5044401;28;20126;-57
2022/11/12 13:16:50;;;;;;;10.30;7.40;;;;;;;10.18;91.68;98673.28;5021544;28;20133;-56
2022/11/12 13:19:42;;;;;;;10.88;6.53;;;;;;;10.01;92.72;98668.38;5005833;28;20059;-56
2022/11/12 13:22:37;;;;;;;10.05;6.93;;;;;;;10.18;91.87;98671.41;5010482;28;20056;-55
2022/11/12 13:25:28;;;;;;;10.10;7.78;;;;;;;10.13;92.20;98663.94;5027015;28;20130;-54
2022/11/12 13:28:13;;;;;;;9.70;7.15;;;;;;;10.25;91.27;98660.53;5029526;28;20130;-56
2022/11/12 13:31:00;;;;;;;8.88;6.80;;;;;;;10.43;90.98;98662.47;5027476;28;20393;-57
2022/11/12 13:33:46;;;;;;;14.32;6.53;;;;;;;10.46;90.21;98658.56;5045656;28;20098;-57
2022/11/12 13:36:31;;;;;;;11.02;7.40;;;;;;;10.44;90.10;98656.06;5046045;28;20056;-56